Womack, Texas
Current Conditions -  °F | °C
As of 12:51 AM on Saturday 29 Nov 2014 (Local Time) from KACT Reporting Station
Clear Clear  
Wind Chill: 58°   Ceiling: Unl
Heat Index: 58°   Visibility: 10mi
Dew Point: 48°   Wind: 17mph
Humidity: 70%   Direction: 200°SSW
Pressure: 30.02"   Gusts: 25mph
Location:  31.7854°N, 97.5786°W
Report Text: KACT 290651Z 20015G22KT 10SM CLR 14/09 A3002 RMK AO2 SLP162 T01440089
Loading
Personal Weather Stations






























Interactive Weather Map New forecast layout! Learn more

10-Day Weather Forecast

Advertisements
Track Severe Weather on mobile